Pagrindinis puslapis
METAR-TAF:

METAR-TAF

Oro uostai :

Ambler, Aliaska, Jungtinės Amerikos Valstijos

platuma: 67-06N, ilguma: 157-51W, Aukštis: 88 m

Dabartinis oras

Ataskaita buvo paskelbta 57 minutes, ne 20:56 UTC
Vėjas 5 kt nuo kintamojo kryptimis
Temperatūra 3°C
Drėgmė 65%
Slėgis 1000 hPa
Matomumas: 16.1 km
Giedras dangus

METAR: PAFM 212056Z AUTO VRB05KT 10SM CLR 03/M03 A2954 RMK AO2 SLP019 T00331028 51011

Laikas: 13:53 (21:53 UTC)


TAF: trūkstamas

Orai ataskaitas ir orų prognozės (METAR, TAF).

turimą stotys yra geltonos ir raudonos taškus žemėlapyje.

Perkelti pele per norėdami pamatyti stoties vardą.

Tada spustelėkite, norėdami matyti oro stebėjimo ir prognozės.

Norėdami pakeisti žemėlapį: spustelėkite ant žalios mygtukų su juodo kryžiaus žemyn,; žalią mygtuką su brūkšneliu, jei norite nutolinti; arba žalių rodyklių gretimoms žemėlapius.


METAR-TAF: